aviador You're here:

KMJX Decoded Metar

in _UNIDENTIFIED
Report Time2018-05-27 00:56:00
UTC Time2018-05-27 01:25:45
Flight Rules vfr VFR
Wind180° at 03 kt
W.Decomp.*RWY 24: 2.0 kt HW 2.3 kt LCW
W.Rank180° ranks 17
Current wind is below 180° avg. (7.3)
Visibility9999 m
Phenomena:N/A
Clouds:N/A
Expected CloudBase > 2,800 ft AGL from Temp-Dew spread
CeilingNone
Temp27°C (ISA +12)
Dew Point20°C (66% RH)
Heat Index28.5°C
QNH1011 hPa
Density Alt1,860 ft
Elevation82 ft
Report Wrong Elevation
Raw Report
KMJX 270056Z AUTO 18003KT 10SM CLR 27/20 A2985 RMK AO2 LTG DSNT N
AND W TSB18E33 SLP113 T02670200=

Extra information for KMJX:More info

Metar Taf Metar & Taf Last 4 Metars F.Rules Stats Wind Profile Meteogram Temp Stats Metar ALERT Operation Metar Decoded Social comments